Time;durP1;ratioP1;P1;durP2;ratioP2;P2;SDS_P1;SDS_P2;PMS_P1;PMS_P2;Temp;Humidity;BMP_temperature;BMP_pressure;BME280_temperature;BME280_humidity;BME280_pressure;Samples;Min_cycle;Max_cycle;Signal;HPM_P1;HPM_P2
2022/08/09 00:00:51;;;;;;;5.53;2.50;;;23.30;59.80;;;;;;5093161;23;20287;-95
2022/08/09 00:03:20;;;;;;;7.07;3.00;;;23.30;60.20;;;;;;5036046;28;20259;-94
2022/08/09 00:05:49;;;;;;;6.87;3.10;;;23.30;60.30;;;;;;5023258;28;20222;-93
2022/08/09 00:08:17;;;;;;;6.00;3.13;;;23.20;60.30;;;;;;5018688;28;20212;-94
2022/08/09 00:10:46;;;;;;;5.23;2.70;;;23.20;60.40;;;;;;5015026;28;20658;-94
2022/08/09 00:13:15;;;;;;;8.30;3.40;;;23.20;60.50;;;;;;5026038;28;20219;-94
2022/08/09 00:15:48;;;;;;;5.17;2.57;;;23.20;60.30;;;;;;5035324;28;20214;-95
2022/08/09 00:18:16;;;;;;;5.90;3.13;;;23.20;60.70;;;;;;5033078;28;21016;-95
2022/08/09 00:20:47;;;;;;;5.77;3.20;;;23.10;60.40;;;;;;5033208;28;20705;-94
2022/08/09 00:23:15;;;;;;;9.57;3.70;;;23.10;60.80;;;;;;5033874;28;20259;-93
2022/08/09 00:25:43;;;;;;;6.87;3.00;;;23.10;60.70;;;;;;5033268;28;20232;-94
2022/08/09 00:28:12;;;;;;;8.40;3.93;;;23.10;60.90;;;;;;5033508;28;20304;-94
2022/08/09 00:30:39;;;;;;;5.27;2.80;;;23.10;60.90;;;;;;5033494;28;20897;-95
2022/08/09 00:33:07;;;;;;;4.47;2.80;;;23.10;60.90;;;;;;5034250;28;20806;-95
2022/08/09 00:35:37;;;;;;;7.67;4.03;;;23.10;61.20;;;;;;5033716;28;20657;-95
2022/08/09 00:38:08;;;;;;;5.83;3.03;;;23.00;61.30;;;;;;5031896;28;20637;-96
2022/08/09 00:41:21;;;;;;;6.87;3.07;;;23.00;61.30;;;;;;5033579;28;20205;-95
2022/08/09 00:43:49;;;;;;;6.37;3.33;;;22.90;62.00;;;;;;5032680;28;20295;-93
2022/08/09 00:46:22;;;;;;;11.57;4.53;;;23.00;61.30;;;;;;5031966;28;20233;-95
2022/08/09 00:48:49;;;;;;;8.37;3.80;;;22.90;61.60;;;;;;5033379;28;20221;-94
2022/08/09 00:51:18;;;;;;;6.30;3.40;;;22.90;61.20;;;;;;5032852;28;20614;-94
2022/08/09 00:53:54;;;;;;;7.87;3.47;;;22.90;61.50;;;;;;5032432;28;20208;-95
2022/08/09 00:56:25;;;;;;;8.97;3.73;;;22.90;62.10;;;;;;5027086;28;20205;-94
2022/08/09 00:58:53;;;;;;;7.10;3.33;;;22.90;61.70;;;;;;5027705;28;20197;-94
2022/08/09 01:01:27;;;;;;;10.13;3.93;;;22.80;61.60;;;;;;5021455;28;20304;-95
2022/08/09 01:04:02;;;;;;;9.67;4.03;;;22.80;61.80;;;;;;5033839;28;20255;-96
2022/08/09 01:06:39;;;;;;;7.20;3.20;;;22.80;62.10;;;;;;5022563;28;20228;-95
2022/08/09 01:09:19;;;;;;;7.07;3.20;;;22.80;62.50;;;;;;5033373;28;20227;-95
2022/08/09 01:11:55;;;;;;;7.33;4.03;;;22.80;62.60;;;;;;5033412;28;20201;-96
2022/08/09 01:14:28;;;;;;;8.37;3.83;;;22.80;62.50;;;;;;5032193;28;20323;-96
2022/08/09 01:17:02;;;;;;;6.03;3.57;;;22.70;62.20;;;;;;5029782;28;20229;-95
2022/08/09 01:19:42;;;;;;;7.53;4.17;;;22.70;62.50;;;;;;5019264;28;20212;-95
2022/08/09 01:22:45;;;;;;;9.13;4.67;;;22.70;62.90;;;;;;5032795;28;20218;-94
2022/08/09 01:25:24;;;;;;;10.83;5.00;;;22.70;63.20;;;;;;5026691;28;20224;-95
2022/08/09 01:27:55;;;;;;;9.30;4.63;;;22.70;62.90;;;;;;5030259;28;20201;-95
2022/08/09 01:30:26;;;;;;;20.80;8.43;;;22.70;62.90;;;;;;5037720;22;20338;-94
2022/08/09 01:32:58;;;;;;;8.70;4.60;;;22.60;62.80;;;;;;5030563;28;20211;-95
2022/08/09 01:35:29;;;;;;;10.03;4.60;;;22.60;62.90;;;;;;5030604;28;20284;-95
2022/08/09 01:38:02;;;;;;;10.93;4.57;;;22.60;62.80;;;;;;5043985;28;20207;-95
2022/08/09 01:40:33;;;;;;;8.90;4.10;;;22.60;63.10;;;;;;5031739;28;20233;-94
2022/08/09 01:43:03;;;;;;;9.63;4.47;;;22.60;62.80;;;;;;5052571;23;20244;-95
2022/08/09 01:45:45;;;;;;;8.93;3.87;;;22.50;62.90;;;;;;5032025;28;20696;-94
2022/08/09 01:48:15;;;;;;;9.53;4.47;;;22.50;62.90;;;;;;5031643;28;20320;-93
2022/08/09 01:50:44;;;;;;;9.37;4.53;;;22.40;62.80;;;;;;5033346;28;20300;-94
2022/08/09 01:53:12;;;;;;;12.10;4.93;;;22.40;62.80;;;;;;5038659;28;20205;-95
2022/08/09 01:55:41;;;;;;;6.47;3.83;;;22.40;62.60;;;;;;5033862;28;20274;-95
2022/08/09 01:58:12;;;;;;;9.97;4.47;;;22.40;62.70;;;;;;5024820;28;20205;-95
2022/08/09 02:00:40;;;;;;;9.00;4.33;;;22.40;62.90;;;;;;5041316;28;20194;-95
2022/08/09 02:03:10;;;;;;;11.20;4.07;;;22.40;62.80;;;;;;5052742;28;20188;-94
2022/08/09 02:05:41;;;;;;;12.10;4.73;;;22.40;63.00;;;;;;5051930;28;20583;-94
2022/08/09 02:08:12;;;;;;;9.37;4.43;;;22.40;63.20;;;;;;5052635;28;20189;-95
2022/08/09 02:10:47;;;;;;;5.33;3.07;;;22.40;63.20;;;;;;5052360;28;20202;-94
2022/08/09 02:13:36;;;;;;;10.37;4.60;;;22.30;63.30;;;;;;5033009;28;20204;-95
2022/08/09 02:16:07;;;;;;;8.30;3.60;;;22.30;63.60;;;;;;5034908;28;20291;-93
2022/08/09 02:18:43;;;;;;;8.73;3.80;;;22.30;63.10;;;;;;5055473;28;20202;-94
2022/08/09 02:21:14;;;;;;;8.57;4.23;;;22.30;63.60;;;;;;5037491;28;20201;-95
2022/08/09 02:23:47;;;;;;;7.73;4.03;;;22.20;63.30;;;;;;5034657;28;20205;-96
2022/08/09 02:26:19;;;;;;;8.40;3.90;;;22.20;63.40;;;;;;5033144;28;20262;-95
2022/08/09 02:29:12;;;;;;;8.10;3.50;;;22.20;63.50;;;;;;5032586;28;20204;-95
2022/08/09 02:31:50;;;;;;;6.97;3.97;;;22.10;63.80;;;;;;5033371;28;20205;-95
2022/08/09 02:34:22;;;;;;;9.90;4.23;;;22.10;63.70;;;;;;5031887;28;20240;-93
2022/08/09 02:36:54;;;;;;;12.40;5.37;;;22.10;63.40;;;;;;5049788;28;20198;-93
2022/08/09 02:39:36;;;;;;;5.10;3.37;;;22.10;63.50;;;;;;5040828;28;20255;-94
2022/08/09 02:42:06;;;;;;;5.53;2.87;;;22.10;63.90;;;;;;5014767;28;20597;-95
2022/08/09 02:44:40;;;;;;;6.53;3.70;;;22.00;63.40;;;;;;5018653;28;20274;-95
2022/08/09 02:47:11;;;;;;;6.60;4.00;;;22.00;63.60;;;;;;5027041;28;20221;-95
2022/08/09 02:49:45;;;;;;;9.17;4.53;;;22.00;63.70;;;;;;5015446;28;20956;-95
2022/08/09 02:52:16;;;;;;;10.87;4.47;;;22.00;63.70;;;;;;5028604;28;20209;-96
2022/08/09 02:54:46;;;;;;;8.53;3.70;;;21.90;63.50;;;;;;5026467;28;21009;-94
2022/08/09 02:57:18;;;;;;;9.37;4.50;;;21.90;63.50;;;;;;5012420;28;20713;-96
2022/08/09 02:59:49;;;;;;;6.40;3.77;;;21.90;63.70;;;;;;5012716;28;20240;-94
2022/08/09 03:02:19;;;;;;;11.17;4.93;;;21.90;63.70;;;;;;5027882;28;20208;-95
2022/08/09 03:04:47;;;;;;;10.00;5.07;;;21.90;63.60;;;;;;5031912;28;20197;-95
2022/08/09 03:07:18;;;;;;;13.27;5.83;;;21.90;63.50;;;;;;5033199;28;20302;-95
2022/08/09 03:09:46;;;;;;;8.93;4.73;;;21.80;63.50;;;;;;5033256;28;20197;-95
2022/08/09 03:12:15;;;;;;;9.03;4.50;;;21.80;63.50;;;;;;5033839;28;20270;-95
2022/08/09 03:14:43;;;;;;;7.37;4.30;;;21.80;63.60;;;;;;5033991;28;20208;-95
2022/08/09 03:17:19;;;;;;;4.57;3.37;;;21.80;63.80;;;;;;5035661;28;20673;-94
2022/08/09 03:19:48;;;;;;;8.97;4.67;;;21.70;63.90;;;;;;5034849;28;20262;-94
2022/08/09 03:22:16;;;;;;;10.37;5.03;;;21.70;63.80;;;;;;5035561;28;20262;-94
2022/08/09 03:30:28;;;;;;;10.40;5.33;;;21.60;64.00;;;;;;5027884;28;20211;-95
2022/08/09 03:32:58;;;;;;;9.47;4.40;;;21.60;64.00;;;;;;5033215;28;20219;-95
2022/08/09 03:35:26;;;;;;;12.70;5.73;;;21.60;64.40;;;;;;5032125;28;20209;-95
2022/08/09 03:37:53;;;;;;;9.47;5.10;;;21.50;64.40;;;;;;5032950;28;20274;-95
2022/08/09 03:40:20;;;;;;;18.63;7.67;;;21.50;64.40;;;;;;5032338;28;20216;-94
2022/08/09 03:42:47;;;;;;;13.10;5.83;;;21.50;64.50;;;;;;5030906;28;20642;-92
2022/08/09 03:47:58;;;;;;;9.47;4.50;;;21.50;64.50;;;;;;5022063;28;20236;-94
2022/08/09 03:50:49;;;;;;;9.13;4.57;;;21.40;64.80;;;;;;5035190;28;20572;-95
2022/08/09 03:53:18;;;;;;;9.93;4.97;;;21.40;64.90;;;;;;5034921;28;20216;-94
2022/08/09 03:58:30;;;;;;;9.17;4.73;;;21.40;65.00;;;;;;5032678;28;20212;-94
2022/08/09 04:01:00;;;;;;;8.17;4.93;;;21.40;64.80;;;;;;5035822;28;20201;-95
2022/08/09 04:03:30;;;;;;;7.60;4.37;;;21.40;65.00;;;;;;5040313;22;20259;-94
2022/08/09 04:06:00;;;;;;;11.20;5.47;;;21.30;65.10;;;;;;5034850;28;20229;-94
2022/08/09 04:08:44;;;;;;;9.90;4.77;;;21.30;65.20;;;;;;5144940;22;20513;-94
2022/08/09 04:11:51;;;;;;;8.13;4.90;;;21.30;65.70;;;;;;5055088;28;20195;-95
2022/08/09 04:14:22;;;;;;;7.73;4.53;;;21.30;65.70;;;;;;5026134;28;20200;-94
2022/08/09 04:17:28;;;;;;;9.60;5.10;;;21.20;65.30;;;;;;5034712;28;20258;-94
2022/08/09 04:19:57;;;;;;;8.30;4.90;;;21.20;65.80;;;;;;5034763;28;20196;-96
2022/08/09 04:22:25;;;;;;;13.40;6.30;;;21.20;65.40;;;;;;5042369;28;20563;-94
2022/08/09 04:24:53;;;;;;;14.87;6.30;;;21.20;65.40;;;;;;5074912;28;20184;-94
2022/08/09 04:27:20;;;;;;;7.27;4.60;;;21.20;65.50;;;;;;5060396;28;20266;-94
2022/08/09 04:29:49;;;;;;;6.70;4.47;;;21.10;65.50;;;;;;5056634;28;20714;-94
2022/08/09 04:32:17;;;;;;;13.67;6.43;;;21.10;65.70;;;;;;5050621;28;20204;-94
2022/08/09 04:35:05;;;;;;;8.63;4.93;;;21.10;65.60;;;;;;5037919;28;20614;-94
2022/08/09 04:37:35;;;;;;;10.40;6.03;;;21.10;65.70;;;;;;5044923;28;20204;-94
2022/08/09 04:40:08;;;;;;;11.70;5.33;;;21.10;65.90;;;;;;5047214;28;20267;-95
2022/08/09 04:45:24;;;;;;;7.80;4.43;;;21.00;66.20;;;;;;5025475;28;20215;-95
2022/08/09 04:47:52;;;;;;;7.93;4.70;;;21.00;66.20;;;;;;5043586;28;20224;-95
2022/08/09 04:50:21;;;;;;;6.40;4.30;;;21.00;66.20;;;;;;5054439;28;20212;-95
2022/08/09 04:52:59;;;;;;;7.60;4.37;;;21.00;66.60;;;;;;5050911;28;20205;-94
2022/08/09 04:55:28;;;;;;;7.63;5.03;;;21.00;66.80;;;;;;5033215;28;20312;-95
2022/08/09 04:57:56;;;;;;;6.70;4.90;;;21.00;66.80;;;;;;5037568;28;21033;-95
2022/08/09 05:00:27;;;;;;;21.40;8.70;;;21.00;66.80;;;;;;5063224;28;20188;-92
2022/08/09 05:06:20;;;;;;;12.13;6.03;;;20.90;68.30;;;;;;4988869;28;20281;-96
2022/08/09 05:08:51;;;;;;;8.83;5.20;;;21.00;68.00;;;;;;5035108;28;20304;-96
2022/08/09 05:11:19;;;;;;;7.70;4.30;;;21.00;67.50;;;;;;5034601;28;20311;-96
2022/08/09 05:14:01;;;;;;;5.33;4.07;;;21.00;67.30;;;;;;5035688;28;20213;-95
2022/08/09 05:16:29;;;;;;;9.63;5.60;;;20.90;67.40;;;;;;5034338;28;21013;-96
2022/08/09 05:18:56;;;;;;;12.33;6.23;;;20.90;67.60;;;;;;5045475;28;20275;-95
2022/08/09 05:21:26;;;;;;;12.53;6.43;;;20.90;67.50;;;;;;5054525;28;20200;-96
2022/08/09 05:23:55;;;;;;;7.47;4.77;;;20.90;67.90;;;;;;5043726;28;20645;-96
2022/08/09 05:26:23;;;;;;;7.33;5.17;;;21.00;68.30;;;;;;5046377;28;20228;-96
2022/08/09 05:28:51;;;;;;;8.43;5.03;;;21.00;68.30;;;;;;5046530;28;20208;-95
2022/08/09 05:31:19;;;;;;;9.43;4.90;;;21.00;68.30;;;;;;5045103;28;20212;-95
2022/08/09 05:33:49;;;;;;;9.60;5.10;;;21.00;68.50;;;;;;5039549;28;20640;-96
2022/08/09 05:36:22;;;;;;;8.47;4.97;;;21.00;68.90;;;;;;5053758;28;20295;-96
2022/08/09 05:38:49;;;;;;;7.10;4.77;;;21.00;69.10;;;;;;5053448;28;20230;-95
2022/08/09 05:41:55;;;;;;;11.63;5.97;;;21.10;69.00;;;;;;5038793;28;20251;-95
2022/08/09 05:44:26;;;;;;;10.73;5.67;;;21.10;69.70;;;;;;5039123;28;20204;-94
2022/08/09 05:46:55;;;;;;;6.77;4.60;;;21.10;69.40;;;;;;5040433;28;20791;-96
2022/08/09 05:49:22;;;;;;;10.07;5.67;;;21.10;69.40;;;;;;5033217;28;20211;-96
2022/08/09 05:51:49;;;;;;;7.33;4.23;;;21.10;69.20;;;;;;5033319;28;20205;-95
2022/08/09 05:54:17;;;;;;;10.03;4.90;;;21.10;69.50;;;;;;5044875;28;20224;-96
2022/08/09 05:56:45;;;;;;;6.63;4.50;;;21.20;69.70;;;;;;5052821;28;20207;-95
2022/08/09 05:59:13;;;;;;;8.23;4.83;;;21.20;69.90;;;;;;5052326;28;20227;-95
2022/08/09 06:01:49;;;;;;;12.13;6.57;;;21.20;70.00;;;;;;5041481;28;20337;-95
2022/08/09 06:04:22;;;;;;;12.67;5.97;;;21.20;70.10;;;;;;5053400;28;20196;-96
2022/08/09 06:06:52;;;;;;;10.77;4.87;;;21.30;70.00;;;;;;5080143;22;20229;-95
2022/08/09 06:09:22;;;;;;;13.60;5.77;;;21.30;70.20;;;;;;5072196;22;20240;-95
2022/08/09 06:11:52;;;;;;;7.90;4.30;;;21.30;70.00;;;;;;5047215;28;20223;-93
2022/08/09 06:14:22;;;;;;;7.90;4.60;;;21.40;70.60;;;;;;5043134;28;20230;-94
2022/08/09 06:16:51;;;;;;;7.53;4.17;;;21.40;70.60;;;;;;5028551;28;20627;-93
2022/08/09 06:19:20;;;;;;;8.60;4.87;;;21.40;70.30;;;;;;5023943;28;20211;-93
2022/08/09 06:21:50;;;;;;;8.33;4.87;;;21.50;70.60;;;;;;5021459;28;20197;-94
2022/08/09 06:24:27;;;;;;;16.30;6.23;;;21.50;70.70;;;;;;5024777;28;20239;-94
2022/08/09 06:26:56;;;;;;;9.07;4.83;;;21.60;71.20;;;;;;5020022;28;20278;-94
2022/08/09 06:29:24;;;;;;;9.33;5.03;;;21.60;70.70;;;;;;5020834;28;20609;-94
2022/08/09 06:31:52;;;;;;;9.63;5.10;;;21.60;70.70;;;;;;5022116;28;20548;-93
2022/08/09 06:34:20;;;;;;;9.10;4.77;;;21.60;70.70;;;;;;5017692;28;20208;-95
2022/08/09 06:36:47;;;;;;;9.17;4.70;;;21.70;70.60;;;;;;5019908;28;20220;-96
2022/08/09 06:39:15;;;;;;;12.47;6.03;;;21.80;70.60;;;;;;5031540;28;20206;-95
2022/08/09 06:41:43;;;;;;;9.50;4.60;;;21.80;70.50;;;;;;5045083;28;20209;-94
2022/08/09 06:44:13;;;;;;;5.97;3.73;;;21.80;70.50;;;;;;5028306;28;20651;-94
2022/08/09 06:46:41;;;;;;;8.33;4.10;;;21.90;70.60;;;;;;5035153;28;20224;-92
2022/08/09 06:49:11;;;;;;;7.80;4.40;;;21.90;70.50;;;;;;5027009;28;20526;-95
2022/08/09 06:51:39;;;;;;;11.60;5.30;;;22.00;70.50;;;;;;5029186;28;20204;-91
2022/08/09 06:54:06;;;;;;;8.73;4.37;;;22.00;70.20;;;;;;5024475;28;20301;-96
2022/08/09 06:59:20;;;;;;;6.20;4.00;;;22.10;70.20;;;;;;5008356;28;20592;-94
2022/08/09 07:04:29;;;;;;;8.27;4.43;;;22.20;70.70;;;;;;5054139;23;20244;-94
2022/08/09 07:07:03;;;;;;;14.07;5.73;;;22.20;69.80;;;;;;5072557;28;20288;-94
2022/08/09 07:09:43;;;;;;;10.73;4.83;;;22.20;70.50;;;;;;5070409;28;20559;-94
2022/08/09 07:12:11;;;;;;;11.13;5.03;;;22.30;70.00;;;;;;5069693;28;20207;-95
2022/08/09 07:14:44;;;;;;;6.57;3.27;;;22.40;69.70;;;;;;5057233;28;20200;-96
2022/08/09 07:17:14;;;;;;;6.00;3.47;;;22.40;69.70;;;;;;5055561;28;20208;-93
2022/08/09 07:19:50;;;;;;;12.27;5.07;;;22.50;69.60;;;;;;5054192;28;20225;-93
2022/08/09 07:22:17;;;;;;;10.03;5.10;;;22.50;69.40;;;;;;5062332;28;20234;-93
2022/08/09 07:24:46;;;;;;;7.40;3.80;;;22.50;69.20;;;;;;5073811;28;20636;-96
2022/08/09 07:27:24;;;;;;;8.97;4.00;;;22.60;69.20;;;;;;5057679;28;20220;-94
2022/08/09 07:29:54;;;;;;;9.83;4.07;;;22.70;69.20;;;;;;5056786;28;20206;-94
2022/08/09 07:32:21;;;;;;;11.73;3.70;;;22.70;68.70;;;;;;5054254;28;20565;-93
2022/08/09 07:34:55;;;;;;;11.40;4.47;;;22.70;68.70;;;;;;5057684;28;20601;-91
2022/08/09 07:37:22;;;;;;;10.37;4.47;;;22.80;68.70;;;;;;5059740;28;20226;-95
2022/08/09 07:39:51;;;;;;;13.37;4.83;;;22.90;68.40;;;;;;5073291;28;20636;-92
2022/08/09 07:42:18;;;;;;;5.27;3.17;;;22.90;68.50;;;;;;5072612;28;20508;-93
2022/08/09 07:44:45;;;;;;;8.77;3.80;;;23.00;68.10;;;;;;5076427;28;20312;-91
2022/08/09 07:47:14;;;;;;;10.50;4.70;;;23.00;67.80;;;;;;5072241;28;20372;-91
2022/08/09 07:49:43;;;;;;;13.17;4.90;;;23.10;67.50;;;;;;5046247;28;20215;-93
2022/08/09 07:52:12;;;;;;;10.47;4.70;;;23.10;67.20;;;;;;5051558;28;20204;-93
2022/08/09 07:54:39;;;;;;;7.53;3.30;;;23.20;67.30;;;;;;5036697;28;20235;-92
2022/08/09 07:57:07;;;;;;;9.40;3.80;;;23.20;67.20;;;;;;5033960;28;20202;-92
2022/08/09 08:02:09;;;;;;;7.87;3.63;;;23.40;66.80;;;;;;5030447;28;20222;-90
2022/08/09 08:04:39;;;;;;;9.93;4.30;;;23.50;66.70;;;;;;5031586;28;20210;-92
2022/08/09 08:07:06;;;;;;;5.87;2.67;;;23.50;66.30;;;;;;5023313;28;20249;-93
2022/08/09 08:09:34;;;;;;;10.17;4.40;;;23.60;66.50;;;;;;5014927;28;20246;-94
2022/08/09 08:12:02;;;;;;;9.57;3.00;;;23.60;66.10;;;;;;5012573;28;20409;-91
2022/08/09 08:14:30;;;;;;;6.40;3.23;;;23.70;66.70;;;;;;5013057;28;20207;-92
2022/08/09 08:16:57;;;;;;;7.70;3.23;;;23.80;65.90;;;;;;5012871;28;20225;-95
2022/08/09 08:19:25;;;;;;;10.97;3.77;;;23.80;65.80;;;;;;5011993;28;20209;-92
2022/08/09 08:24:35;;;;;;;11.90;3.90;;;24.00;65.00;;;;;;5008756;28;20709;-93
2022/08/09 08:27:04;;;;;;;4.50;2.57;;;24.10;64.80;;;;;;5011881;28;20609;-94
2022/08/09 08:29:33;;;;;;;8.00;3.23;;;24.10;64.40;;;;;;5011746;28;20665;-93
2022/08/09 08:32:00;;;;;;;7.50;3.13;;;24.20;64.30;;;;;;5011952;28;20297;-92
2022/08/09 08:34:28;;;;;;;10.83;4.73;;;24.30;64.00;;;;;;5010302;28;20304;-92
2022/08/09 08:36:57;;;;;;;8.87;3.77;;;24.30;63.50;;;;;;5010634;28;20212;-93
2022/08/09 08:39:45;;;;;;;8.23;3.03;;;24.40;63.30;;;;;;5019985;28;20678;-94
2022/08/09 08:42:16;;;;;;;8.07;3.50;;;24.50;63.00;;;;;;5013419;28;20200;-94
2022/08/09 08:44:47;;;;;;;6.27;2.60;;;24.60;63.10;;;;;;4994430;28;20296;-93
2022/08/09 08:47:15;;;;;;;6.90;3.10;;;24.60;63.00;;;;;;5011784;28;20236;-92
2022/08/09 08:49:48;;;;;;;9.33;3.67;;;24.70;62.80;;;;;;5010190;28;20674;-93
2022/08/09 08:52:19;;;;;;;8.63;3.07;;;24.80;61.80;;;;;;5011302;28;20632;-92
2022/08/09 08:54:48;;;;;;;8.70;3.63;;;24.80;61.70;;;;;;5016089;28;20224;-92
2022/08/09 08:57:25;;;;;;;8.13;3.43;;;24.90;61.50;;;;;;5018442;28;20202;-96
2022/08/09 08:59:54;;;;;;;6.37;2.97;;;25.00;61.00;;;;;;5013356;28;20683;-96
2022/08/09 09:02:25;;;;;;;8.50;2.97;;;25.10;61.70;;;;;;5011546;28;20212;-94
2022/08/09 09:04:57;;;;;;;4.57;2.10;;;25.30;61.20;;;;;;5009425;28;20291;-94
2022/08/09 09:07:29;;;;;;;12.13;4.40;;;25.40;60.50;;;;;;5012726;28;21086;-94
2022/08/09 09:09:57;;;;;;;6.73;2.97;;;25.60;60.60;;;;;;5010719;28;20212;-93
2022/08/09 09:12:27;;;;;;;8.80;3.20;;;25.80;60.40;;;;;;5011214;28;20255;-92
2022/08/09 09:14:57;;;;;;;5.13;2.27;;;26.00;59.80;;;;;;5010961;28;20302;-92
2022/08/09 09:17:28;;;;;;;5.03;2.47;;;26.20;60.00;;;;;;5011357;28;20287;-93
2022/08/09 09:19:55;;;;;;;7.27;2.57;;;26.40;59.50;;;;;;5010523;28;20960;-93
2022/08/09 09:22:24;;;;;;;7.37;2.87;;;26.60;59.00;;;;;;5010709;28;20553;-95
2022/08/09 09:25:07;;;;;;;7.83;2.77;;;26.90;58.60;;;;;;5013679;23;20631;-96
2022/08/09 09:27:38;;;;;;;4.13;2.20;;;27.10;57.70;;;;;;5011245;28;20639;-94
2022/08/09 09:30:12;;;;;;;10.13;3.50;;;27.30;57.90;;;;;;5009226;28;20209;-95
2022/08/09 09:32:40;;;;;;;5.63;2.67;;;27.50;56.90;;;;;;5010401;28;20208;-91
2022/08/09 09:35:09;;;;;;;5.77;2.20;;;27.80;57.60;;;;;;5011084;28;20209;-93
2022/08/09 09:37:37;;;;;;;9.00;3.10;;;28.00;57.00;;;;;;5010858;28;20251;-94
2022/08/09 09:40:08;;;;;;;6.77;2.87;;;28.20;56.90;;;;;;5009899;28;20268;-91
2022/08/09 09:42:35;;;;;;;7.57;3.37;;;28.40;56.30;;;;;;5009363;28;20642;-93
2022/08/09 09:45:07;;;;;;;5.97;2.73;;;28.50;56.00;;;;;;5007477;28;20305;-93
2022/08/09 09:47:35;;;;;;;7.03;2.47;;;28.70;55.20;;;;;;5009406;28;20228;-93
2022/08/09 09:50:02;;;;;;;4.63;2.20;;;29.00;55.20;;;;;;5004096;28;20663;-93
2022/08/09 09:52:33;;;;;;;7.97;3.43;;;29.20;54.60;;;;;;4993268;28;20298;-92
2022/08/09 09:55:07;;;;;;;7.30;2.87;;;29.30;53.70;;;;;;4953382;28;20230;-91
2022/08/09 09:57:34;;;;;;;8.03;3.60;;;29.40;53.10;;;;;;4950243;29;20218;-91
2022/08/09 10:00:23;;;;;;;5.60;2.72;;;29.60;53.60;;;;;;4966268;28;20313;-93
2022/08/09 10:02:50;;;;;;;9.17;4.20;;;29.80;51.90;;;;;;4985326;28;20213;-92
2022/08/09 10:05:17;;;;;;;13.17;5.60;;;29.90;52.90;;;;;;4990743;28;20199;-94
2022/08/09 10:07:48;;;;;;;6.57;2.97;;;30.00;52.70;;;;;;4982199;28;20238;-90
2022/08/09 10:10:29;;;;;;;5.17;2.03;;;30.10;51.60;;;;;;4979832;28;20191;-92
2022/08/09 10:12:57;;;;;;;2.53;1.53;;;30.30;50.90;;;;;;4976018;28;20257;-93
2022/08/09 10:15:25;;;;;;;6.63;3.03;;;30.40;51.50;;;;;;4974792;28;20219;-91
2022/08/09 10:17:54;;;;;;;5.88;2.63;;;30.50;51.30;;;;;;4970347;28;20521;-93
2022/08/09 10:20:30;;;;;;;6.40;2.80;;;30.60;50.40;;;;;;4970377;28;20277;-91
2022/08/09 10:23:12;;;;;;;7.00;2.60;;;30.70;49.60;;;;;;4989729;28;20183;-90
2022/08/09 10:25:51;;;;;;;5.57;2.78;;;30.80;50.60;;;;;;4960222;28;20932;-87
2022/08/09 10:28:22;;;;;;;5.07;2.42;;;30.90;49.00;;;;;;4953914;28;20215;-93
2022/08/09 10:30:49;;;;;;;5.80;2.83;;;31.10;49.40;;;;;;4963272;28;20218;-92
2022/08/09 10:33:16;;;;;;;7.93;3.13;;;31.10;49.90;;;;;;4968909;28;20206;-91
2022/08/09 10:35:44;;;;;;;8.18;4.07;;;31.30;49.50;;;;;;4967302;28;20841;-93
2022/08/09 10:38:11;;;;;;;4.15;2.20;;;31.30;49.00;;;;;;4969385;28;20210;-92
2022/08/09 10:40:39;;;;;;;10.95;4.30;;;31.40;48.50;;;;;;4975806;28;20317;-87
2022/08/09 10:43:08;;;;;;;7.80;3.45;;;31.50;48.50;;;;;;4982561;28;20206;-91
2022/08/09 10:45:37;;;;;;;5.07;2.58;;;31.60;48.00;;;;;;4995626;28;20270;-91
2022/08/09 10:48:10;;;;;;;6.65;2.67;;;31.70;48.00;;;;;;4981897;28;20234;-92
2022/08/09 10:53:43;;;;;;;7.43;2.95;;;31.90;47.40;;;;;;4967661;28;20246;-93
2022/08/09 10:56:22;;;;;;;6.25;2.97;;;32.00;47.00;;;;;;4969051;28;20671;-94
2022/08/09 10:59:20;;;;;;;7.93;3.33;;;32.10;46.40;;;;;;4969112;28;20293;-89
2022/08/09 11:01:54;;;;;;;8.88;4.43;;;32.10;46.20;;;;;;4967180;28;20294;-92
2022/08/09 11:04:35;;;;;;;13.15;5.50;;;32.20;47.40;;;;;;4993850;28;20237;-92
2022/08/09 11:07:40;;;;;;;8.05;3.25;;;32.30;45.80;;;;;;4987050;28;20207;-90
2022/08/09 11:10:08;;;;;;;8.13;3.72;;;32.40;46.00;;;;;;4985051;28;20265;-90
2022/08/09 11:12:35;;;;;;;6.35;2.92;;;32.50;46.10;;;;;;4969334;28;20976;-92
2022/08/09 11:17:57;;;;;;;5.97;2.17;;;32.60;46.10;;;;;;5147285;27;20572;-92
2022/08/09 11:20:46;;;;;;;5.78;2.50;;;32.60;45.30;;;;;;5145171;27;20257;-91
2022/08/09 11:23:14;;;;;;;9.43;4.30;;;32.70;44.00;;;;;;5142188;27;20212;-90
2022/08/09 11:25:46;;;;;;;7.22;3.47;;;32.80;45.30;;;;;;5136554;27;20200;-92
2022/08/09 11:28:38;;;;;;;7.35;3.05;;;32.90;44.50;;;;;;5135881;27;20203;-93
2022/08/09 11:31:38;;;;;;;14.43;6.07;;;33.00;44.00;;;;;;5132678;27;20197;-90
2022/08/09 11:34:15;;;;;;;10.57;3.90;;;33.00;43.50;;;;;;5146040;27;20291;-93
2022/08/09 11:36:43;;;;;;;6.45;3.25;;;33.10;44.50;;;;;;5143434;27;20284;-92
2022/08/09 11:39:12;;;;;;;8.50;3.58;;;33.10;45.60;;;;;;5145269;27;20193;-96
2022/08/09 11:41:41;;;;;;;7.18;3.80;;;33.30;45.90;;;;;;5145687;27;20204;-94
2022/08/09 11:44:09;;;;;;;9.95;4.25;;;33.40;46.20;;;;;;5144933;27;20200;-93
2022/08/09 11:46:53;;;;;;;9.45;3.65;;;33.40;45.90;;;;;;5139300;27;20209;-95
2022/08/09 11:49:58;;;;;;;6.60;3.17;;;33.50;45.20;;;;;;5127290;27;20565;-95
2022/08/09 11:52:27;;;;;;;11.88;5.60;;;33.50;44.30;;;;;;5127140;27;20287;-94
2022/08/09 11:55:32;;;;;;;7.35;3.88;;;33.60;44.60;;;;;;5165287;27;20208;-94
2022/08/09 11:58:02;;;;;;;7.43;3.65;;;33.70;44.50;;;;;;5166403;27;20280;-95
2022/08/09 12:00:31;;;;;;;9.13;3.65;;;33.80;45.40;;;;;;5169022;27;20206;-92
2022/08/09 12:03:16;;;;;;;8.48;3.58;;;33.80;45.50;;;;;;5164253;27;20229;-93
2022/08/09 12:05:44;;;;;;;9.63;4.35;;;33.90;44.90;;;;;;5166402;27;20212;-91
2022/08/09 12:11:15;;;;;;;7.97;3.60;;;33.90;44.60;;;;;;5113140;22;20276;-91
2022/08/09 12:13:45;;;;;;;12.27;5.00;;;33.90;45.10;;;;;;5103710;28;20198;-94
2022/08/09 12:16:16;;;;;;;14.65;5.38;;;33.90;45.10;;;;;;5108385;28;20292;-94
2022/08/09 12:19:04;;;;;;;13.07;5.90;;;33.90;45.00;;;;;;5107605;28;20581;-92
2022/08/09 12:21:33;;;;;;;12.63;5.07;;;33.90;44.50;;;;;;5102465;28;20202;-92
2022/08/09 12:24:02;;;;;;;9.88;4.25;;;33.80;44.90;;;;;;5104864;28;20225;-92
2022/08/09 12:27:01;;;;;;;8.35;4.05;;;33.90;44.90;;;;;;5103743;28;20285;-91
2022/08/09 12:29:31;;;;;;;9.57;3.75;;;33.90;44.20;;;;;;5078042;28;20199;-92
2022/08/09 12:35:23;;;;;;;6.55;3.42;;;33.80;44.40;;;;;;5093155;22;20238;-92
2022/08/09 12:37:52;;;;;;;8.32;4.03;;;33.80;44.50;;;;;;5081464;28;20312;-95
2022/08/09 12:40:31;;;;;;;10.80;4.70;;;33.80;44.60;;;;;;5080226;28;20285;-93
2022/08/09 12:45:27;;;;;;;17.05;7.13;;;33.60;45.00;;;;;;5068293;22;20227;-95
2022/08/09 12:47:55;;;;;;;6.80;3.85;;;33.70;45.00;;;;;;5100920;28;20195;-93
2022/08/09 12:50:31;;;;;;;10.00;4.57;;;33.70;44.80;;;;;;5103723;28;20194;-93
2022/08/09 12:52:59;;;;;;;6.85;3.42;;;33.70;44.30;;;;;;5101255;28;20214;-94
2022/08/09 12:55:32;;;;;;;11.45;5.38;;;33.70;44.70;;;;;;5100821;28;20194;-95
2022/08/09 12:58:12;;;;;;;8.18;4.10;;;33.70;44.30;;;;;;5098820;28;20223;-91
2022/08/09 13:00:46;;;;;;;6.65;3.55;;;33.70;44.40;;;;;;5104836;28;20207;-91
2022/08/09 13:03:27;;;;;;;6.18;3.03;;;33.60;44.30;;;;;;5081034;28;20199;-91
2022/08/09 13:06:12;;;;;;;8.20;3.45;;;33.60;44.10;;;;;;5094706;28;20213;-94
2022/08/09 13:09:04;;;;;;;7.88;3.92;;;33.60;44.50;;;;;;5093262;28;20214;-94
2022/08/09 13:11:35;;;;;;;11.32;4.63;;;33.60;44.30;;;;;;5110956;28;20203;-90
2022/08/09 13:14:09;;;;;;;9.45;3.53;;;33.60;44.30;;;;;;5091212;28;20203;-96
2022/08/09 13:16:44;;;;;;;9.85;3.55;;;33.70;44.30;;;;;;5080021;28;20206;-94
2022/08/09 13:19:12;;;;;;;10.43;4.07;;;33.70;44.20;;;;;;5106168;28;20247;-90
2022/08/09 13:22:06;;;;;;;4.97;2.90;;;33.70;44.40;;;;;;5105056;28;20203;-95
2022/08/09 13:24:43;;;;;;;11.52;3.50;;;33.80;44.00;;;;;;5084676;28;20652;-95
2022/08/09 13:27:31;;;;;;;7.75;4.05;;;33.80;44.10;;;;;;5073300;28;20665;-91
2022/08/09 13:30:21;;;;;;;10.48;5.00;;;33.80;43.20;;;;;;5086992;28;20654;-93
2022/08/09 13:32:56;;;;;;;9.65;4.05;;;33.80;43.70;;;;;;5070343;28;20643;-95
2022/08/09 13:35:28;;;;;;;10.85;4.57;;;33.80;43.80;;;;;;5070457;28;20206;-91
2022/08/09 13:37:58;;;;;;;8.02;3.38;;;33.80;43.70;;;;;;5091444;28;20222;-92
2022/08/09 13:43:07;;;;;;;11.27;4.63;;;33.80;43.50;;;;;;5071945;28;20206;-94
2022/08/09 13:45:46;;;;;;;12.15;4.18;;;33.90;43.70;;;;;;5088438;28;20210;-95
2022/08/09 13:48:18;;;;;;;7.10;3.42;;;33.80;43.10;;;;;;5069893;28;20583;-94
2022/08/09 13:50:46;;;;;;;7.75;3.85;;;33.90;43.40;;;;;;5079869;28;20199;-94
2022/08/09 13:53:23;;;;;;;;;;;;;;;;;;;;;
2022/08/09 13:58:37;;;;;;;7.03;3.67;;;33.90;43.50;;;;;;5091494;28;20702;-95
2022/08/09 14:01:10;;;;;;;9.13;2.67;;;33.90;43.70;;;;;;5080895;28;20608;-93